Time;durP1;ratioP1;P1;durP2;ratioP2;P2;SDS_P1;SDS_P2;PMS_P1;PMS_P2;Temp;Humidity;BMP_temperature;BMP_pressure;BME280_temperature;BME280_humidity;BME280_pressure;Samples;Min_cycle;Max_cycle;Signal;HPM_P1;HPM_P2
2022/04/06 00:00:47;;;;;;;;;5.00;1.00;;;;;12.32;56.79;100845.47;5060458;28;45372;-65
2022/04/06 00:03:12;;;;;;;;;1.50;1.00;;;;;12.29;56.86;100841.25;5060487;28;45388;-76
2022/04/06 00:05:38;;;;;;;;;2.50;2.00;;;;;12.32;57.18;100839.34;5047494;28;45645;-63
2022/04/06 00:08:03;;;;;;;;;3.75;1.75;;;;;12.30;57.05;100845.59;5055299;28;45571;-61
2022/04/06 00:10:31;;;;;;;;;1.00;1.00;;;;;12.30;57.04;100839.47;5039796;28;45938;-66
2022/04/06 00:12:57;;;;;;;;;3.75;1.50;;;;;12.32;56.72;100845.47;5039735;28;45495;-65
2022/04/06 00:15:23;;;;;;;;;3.00;1.00;;;;;12.31;56.79;100838.50;5040199;28;45452;-64
2022/04/06 00:17:49;;;;;;;;;1.00;1.00;;;;;12.33;56.90;100839.28;5040193;28;45495;-76
2022/04/06 00:20:16;;;;;;;;;2.00;2.00;;;;;12.34;56.88;100834.84;5042634;28;45437;-76
2022/04/06 00:22:41;;;;;;;;;4.75;1.50;;;;;12.33;57.05;100827.88;5049081;28;45488;-72
2022/04/06 00:25:07;;;;;;;;;3.25;2.00;;;;;12.30;56.90;100835.03;5040432;28;45504;-71
2022/04/06 00:27:33;;;;;;;;;1.00;0.75;;;;;12.32;56.69;100820.88;5039640;28;45550;-65
2022/04/06 00:29:59;;;;;;;;;2.25;1.00;;;;;12.28;56.43;100825.53;5039787;28;45983;-67
2022/04/06 00:32:25;;;;;;;;;1.50;1.00;;;;;12.25;56.60;100818.66;5040012;28;45496;-68
2022/04/06 00:37:34;;;;;;;;;1.00;1.00;;;;;12.21;56.50;100816.28;5039868;28;45513;-65
2022/04/06 00:40:00;;;;;;;;;2.00;1.00;;;;;12.18;56.36;100811.22;5041125;28;46202;-71
2022/04/06 00:42:26;;;;;;;;;1.50;1.50;;;;;12.12;56.56;100809.81;5054997;28;45360;-66
2022/04/06 00:44:51;;;;;;;;;0.00;0.00;;;;;12.07;56.46;100803.97;5044532;28;45369;-64
2022/04/06 00:47:17;;;;;;;;;2.00;0.00;;;;;12.03;56.93;100794.56;5043966;28;45498;-63
2022/04/06 00:49:42;;;;;;;;;0.00;0.00;;;;;12.00;57.01;100798.22;5047022;28;46145;-63
2022/04/06 00:52:08;;;;;;;;;3.00;0.50;;;;;11.95;56.90;100797.69;5044002;28;45392;-63
2022/04/06 00:54:37;;;;;;;;;2.25;1.00;;;;;11.90;57.28;100791.00;5049277;28;45486;-62
2022/04/06 00:57:03;;;;;;;;;3.00;1.00;;;;;11.84;57.58;100794.88;5040287;28;45549;-63
2022/04/06 00:59:30;;;;;;;;;1.50;0.00;;;;;11.81;57.73;100794.25;5040947;28;45315;-63
2022/04/06 01:01:57;;;;;;;;;3.25;1.00;;;;;11.80;57.91;100798.69;5040493;28;45328;-64
2022/04/06 01:04:22;;;;;;;;;4.75;2.00;;;;;11.74;58.18;100793.75;5040750;28;45340;-60
2022/04/06 01:06:49;;;;;;;;;2.75;2.00;;;;;11.69;58.68;100788.78;5040644;28;45618;-62
2022/04/06 01:09:16;;;;;;;;;3.00;0.00;;;;;11.64;58.51;100784.72;5022486;28;46557;-65
2022/04/06 01:11:44;;;;;;;;;0.00;0.00;;;;;11.61;58.81;100788.41;5044037;28;45316;-64
2022/04/06 01:14:10;;;;;;;;;2.25;1.50;;;;;11.58;59.09;100774.56;5044138;28;45446;-63
2022/04/06 01:16:36;;;;;;;;;2.75;1.00;;;;;11.55;58.87;100780.88;5040570;28;45486;-66
2022/04/06 01:19:01;;;;;;;;;1.00;1.00;;;;;11.53;59.10;100781.91;5039860;28;45390;-63
2022/04/06 01:21:27;;;;;;;;;3.25;1.00;;;;;11.49;59.35;100775.97;5040470;28;45406;-61
2022/04/06 01:23:53;;;;;;;;;1.00;1.00;;;;;11.46;59.73;100771.75;5040672;28;45395;-62
2022/04/06 01:26:19;;;;;;;;;1.25;1.25;;;;;11.45;59.47;100769.19;5040578;28;45460;-65
2022/04/06 01:28:45;;;;;;;;;1.50;1.00;;;;;11.41;59.43;100767.69;5038770;28;45486;-63
2022/04/06 01:31:11;;;;;;;;;2.25;2.00;;;;;11.38;59.29;100770.53;5040535;28;45424;-64
2022/04/06 01:33:37;;;;;;;;;3.00;0.75;;;;;11.36;59.66;100765.31;5040655;28;45234;-63
2022/04/06 01:36:03;;;;;;;;;3.75;2.00;;;;;11.32;59.86;100766.47;5039221;28;45317;-63
2022/04/06 01:38:28;;;;;;;;;4.00;1.00;;;;;11.27;59.99;100765.91;5039889;28;46562;-63
2022/04/06 01:40:54;;;;;;;;;2.00;2.00;;;;;11.23;59.60;100772.31;5045743;28;45438;-63
2022/04/06 01:43:21;;;;;;;;;3.50;2.00;;;;;11.22;60.12;100769.75;5060641;28;45419;-63
2022/04/06 01:45:47;;;;;;;;;3.25;1.25;;;;;11.17;60.17;100763.00;5060746;28;45496;-63
2022/04/06 01:48:15;;;;;;;;;0.25;0.25;;;;;11.16;60.38;100763.94;5060393;28;46066;-63
2022/04/06 01:53:26;;;;;;;;;1.75;1.00;;;;;11.09;60.09;100762.63;5060592;28;45246;-63
2022/04/06 01:55:52;;;;;;;;;1.00;1.00;;;;;11.07;59.99;100766.28;5046622;28;45282;-63
2022/04/06 01:58:17;;;;;;;;;5.00;2.00;;;;;11.06;59.93;100759.31;5040535;28;45243;-63
2022/04/06 02:00:43;;;;;;;;;3.25;1.00;;;;;11.02;60.23;100755.16;5040047;28;45241;-63
2022/04/06 02:03:08;;;;;;;;;2.50;0.75;;;;;11.00;60.32;100762.34;5040606;28;45170;-63
2022/04/06 02:05:34;;;;;;;;;1.00;1.00;;;;;10.98;60.22;100758.91;5040082;28;45667;-62
2022/04/06 02:08:00;;;;;;;;;5.00;1.00;;;;;10.94;60.23;100749.53;5039981;28;46613;-63
2022/04/06 02:10:27;;;;;;;;;0.75;0.50;;;;;10.92;60.40;100760.16;5040033;28;45316;-63
2022/04/06 02:12:55;;;;;;;;;2.00;1.00;;;;;10.90;60.51;100751.47;5040377;28;45403;-66
2022/04/06 02:15:21;;;;;;;;;1.00;1.00;;;;;10.87;60.68;100747.25;5040051;28;45484;-63
2022/04/06 02:17:48;;;;;;;;;1.75;0.00;;;;;10.83;60.23;100745.75;5040002;28;45249;-62
2022/04/06 02:20:13;;;;;;;;;1.25;0.00;;;;;10.80;60.69;100745.91;5039990;28;45229;-63
2022/04/06 02:22:40;;;;;;;;;0.75;0.75;;;;;10.81;60.94;100742.34;5040205;28;45511;-62
2022/04/06 02:25:06;;;;;;;;;2.00;2.00;;;;;10.80;60.77;100743.28;5040203;28;45467;-62
2022/04/06 02:27:32;;;;;;;;;4.75;0.00;;;;;10.82;60.81;100737.91;5040035;28;45305;-63
2022/04/06 02:29:57;;;;;;;;;0.25;0.00;;;;;10.83;60.37;100735.22;5039868;28;45314;-63
2022/04/06 02:32:23;;;;;;;;;1.00;1.00;;;;;10.86;60.60;100736.81;5040132;28;45313;-63
2022/04/06 02:34:48;;;;;;;;;2.25;1.00;;;;;10.93;60.11;100737.28;5041074;28;45367;-63
2022/04/06 02:37:14;;;;;;;;;0.25;0.00;;;;;11.00;60.33;100728.06;5043442;28;46079;-63
2022/04/06 02:39:40;;;;;;;;;0.75;0.75;;;;;11.07;60.15;100722.31;5050996;28;45336;-62
2022/04/06 02:42:05;;;;;;;;;2.00;0.25;;;;;11.12;60.25;100722.03;5050876;28;45163;-62
2022/04/06 02:44:31;;;;;;;;;1.25;0.00;;;;;11.16;59.72;100726.19;5063559;28;45401;-62
2022/04/06 02:46:57;;;;;;;;;0.00;0.00;;;;;11.19;59.99;100720.72;5063253;28;45238;-62
2022/04/06 02:49:23;;;;;;;;;0.00;0.00;;;;;11.22;59.55;100720.53;5062754;28;45305;-62
2022/04/06 02:51:48;;;;;;;;;0.00;0.00;;;;;11.19;59.58;100720.72;5063776;28;45200;-62
2022/04/06 02:54:13;;;;;;;;;0.00;0.00;;;;;11.22;59.79;100715.25;5063266;28;45507;-63
2022/04/06 02:56:39;;;;;;;;;1.00;0.00;;;;;11.23;59.52;100713.47;5043039;28;46151;-62
2022/04/06 02:59:05;;;;;;;;;0.00;0.00;;;;;11.25;59.63;100709.78;5043085;28;45311;-62
2022/04/06 03:01:31;;;;;;;;;1.50;1.00;;;;;11.29;59.54;100707.78;5043228;28;45392;-62
2022/04/06 03:03:57;;;;;;;;;2.00;1.00;;;;;11.31;59.50;100705.94;5042776;28;45264;-62
2022/04/06 03:06:22;;;;;;;;;0.00;0.00;;;;;11.29;59.40;100703.34;5049693;28;45389;-62
2022/04/06 03:08:48;;;;;;;;;1.00;1.00;;;;;11.30;59.21;100704.25;5063055;28;45619;-62
2022/04/06 03:11:13;;;;;;;;;0.00;0.00;;;;;11.31;59.10;100704.13;5063300;28;45383;-62
2022/04/06 03:13:39;;;;;;;;;0.50;0.00;;;;;11.31;59.55;100698.84;5062980;28;45365;-61
2022/04/06 03:16:05;;;;;;;;;1.25;0.00;;;;;11.30;59.15;100699.81;5063047;28;46259;-61
2022/04/06 03:18:31;;;;;;;;;0.25;0.25;;;;;11.31;59.56;100692.75;5063098;28;45300;-61
2022/04/06 03:20:56;;;;;;;;;2.75;0.00;;;;;11.32;59.14;100695.28;5062438;28;45377;-63
2022/04/06 03:23:22;;;;;;;;;1.00;0.00;;;;;11.34;59.41;100682.81;5062271;28;45319;-61
2022/04/06 03:25:48;;;;;;;;;0.75;0.75;;;;;11.32;59.11;100678.59;5062500;28;45316;-61
2022/04/06 03:28:14;;;;;;;;;0.75;0.00;;;;;11.33;59.04;100678.50;5046082;28;45615;-61
2022/04/06 03:30:40;;;;;;;;;0.00;0.00;;;;;11.33;59.28;100670.59;5041566;28;45434;-61
2022/04/06 03:33:08;;;;;;;;;0.00;0.00;;;;;11.34;59.30;100674.91;5042769;28;45546;-61
2022/04/06 03:35:35;;;;;;;;;1.00;0.00;;;;;11.36;59.30;100666.91;5041897;28;45344;-63
2022/04/06 03:38:00;;;;;;;;;2.00;0.00;;;;;11.35;59.17;100666.06;5042512;28;45261;-63
2022/04/06 03:40:26;;;;;;;;;0.00;0.00;;;;;11.38;58.96;100668.53;5050212;28;45269;-63
2022/04/06 03:42:52;;;;;;;;;0.00;0.00;;;;;11.40;58.91;100665.78;5056134;28;45546;-63
2022/04/06 03:45:17;;;;;;;;;1.00;0.00;;;;;11.38;58.35;100660.59;5062429;28;46152;-63
2022/04/06 03:47:46;;;;;;;;;1.00;0.00;;;;;11.38;58.88;100660.59;5062292;28;45317;-61
2022/04/06 03:50:12;;;;;;;;;0.00;0.00;;;;;11.40;59.22;100664.00;5062261;28;45285;-60
2022/04/06 03:52:38;;;;;;;;;0.75;0.00;;;;;11.42;58.67;100672.63;5062468;28;45526;-60
2022/04/06 03:55:05;;;;;;;;;0.00;0.00;;;;;11.43;58.61;100665.56;5054926;28;45462;-60
2022/04/06 03:57:31;;;;;;;;;0.00;0.00;;;;;11.44;58.94;100660.19;5042131;28;45341;-60
2022/04/06 03:59:57;;;;;;;;;0.00;0.00;;;;;11.45;58.79;100664.56;5042421;28;45218;-60
2022/04/06 04:02:22;;;;;;;;;0.00;0.00;;;;;11.44;58.53;100657.56;5041993;28;45427;-60
2022/04/06 04:04:47;;;;;;;;;0.00;0.00;;;;;11.44;58.74;100659.34;5041692;28;45365;-60
2022/04/06 04:07:20;;;;;;;;;1.00;0.00;;;;;11.42;58.79;100654.19;5041784;28;45347;-60
2022/04/06 04:09:46;;;;;;;;;0.50;0.00;;;;;11.42;58.62;100658.59;5042100;28;45494;-60
2022/04/06 04:12:12;;;;;;;;;0.00;0.00;;;;;11.39;58.90;100650.91;5042012;28;45363;-60
2022/04/06 04:14:37;;;;;;;;;1.25;0.00;;;;;11.38;58.51;100646.56;5041907;28;45301;-61
2022/04/06 04:17:03;;;;;;;;;0.00;0.00;;;;;11.34;58.45;100647.69;5041779;28;45229;-61
2022/04/06 04:19:29;;;;;;;;;0.00;0.00;;;;;11.34;58.99;100643.28;5041656;28;45354;-62
2022/04/06 04:21:54;;;;;;;;;0.00;0.00;;;;;11.34;58.72;100647.69;5041924;28;45332;-61
2022/04/06 04:24:20;;;;;;;;;0.00;0.00;;;;;11.36;59.06;100651.09;5041604;28;45317;-62
2022/04/06 04:26:45;;;;;;;;;0.00;0.00;;;;;11.37;58.77;100647.50;5041605;28;45439;-61
2022/04/06 04:29:11;;;;;;;;;1.25;0.50;;;;;11.39;58.92;100646.47;5041417;28;45364;-62
2022/04/06 04:31:36;;;;;;;;;0.50;0.00;;;;;11.40;59.28;100647.31;5041437;28;45275;-61
2022/04/06 04:34:03;;;;;;;;;0.00;0.00;;;;;11.42;58.79;100653.34;5041192;28;45469;-61
2022/04/06 04:36:29;;;;;;;;;3.00;0.00;;;;;11.44;58.96;100640.88;5041276;28;45344;-61
2022/04/06 04:38:55;;;;;;;;;1.25;1.00;;;;;11.44;58.63;100640.88;5043769;28;45550;-61
2022/04/06 04:41:20;;;;;;;;;0.00;0.00;;;;;11.44;58.75;100639.09;5048010;28;45608;-61
2022/04/06 04:43:46;;;;;;;;;0.00;0.00;;;;;11.43;59.10;100637.41;5061422;28;45249;-61
2022/04/06 04:46:11;;;;;;;;;0.00;0.00;;;;;11.41;59.17;100634.03;5061327;28;45294;-61
2022/04/06 04:48:37;;;;;;;;;0.00;0.00;;;;;11.41;58.84;100628.75;5061742;28;45363;-61
2022/04/06 04:51:03;;;;;;;;;2.00;0.00;;;;;11.42;58.78;100629.59;5061021;28;45290;-62
2022/04/06 04:53:30;;;;;;;;;0.00;0.00;;;;;11.40;58.82;100637.63;5061427;28;45369;-62
2022/04/06 04:55:56;;;;;;;;;0.00;0.00;;;;;11.40;58.85;100629.69;5047164;28;45277;-62
2022/04/06 04:58:23;;;;;;;;;0.00;0.00;;;;;11.42;59.10;100619.03;5040802;28;45317;-61
2022/04/06 05:00:48;;;;;;;;;0.50;0.00;;;;;11.45;58.97;100605.66;5041246;28;45489;-62
2022/04/06 05:03:14;;;;;;;;;0.00;0.00;;;;;11.50;58.59;100608.00;5041043;28;45330;-61
2022/04/06 05:05:42;;;;;;;;;0.00;0.00;;;;;11.48;58.57;100597.56;5034066;28;45451;-61
2022/04/06 05:08:07;;;;;;;;;0.25;0.00;;;;;11.50;58.21;100602.72;5061398;28;45233;-61
2022/04/06 05:10:33;;;;;;;;;2.00;0.00;;;;;11.53;58.48;100613.06;5061372;28;45406;-62
2022/04/06 05:12:59;;;;;;;;;0.75;0.00;;;;;11.54;58.03;100618.25;5061078;28;45345;-61
2022/04/06 05:15:24;;;;;;;;;0.00;0.00;;;;;11.53;58.08;100613.91;5060967;28;45335;-62
2022/04/06 05:17:49;;;;;;;;;1.00;1.00;;;;;11.54;58.16;100612.16;5060962;28;45427;-62
2022/04/06 05:20:15;;;;;;;;;3.25;0.00;;;;;11.56;58.09;100603.19;5060873;28;45489;-62
2022/04/06 05:22:41;;;;;;;;;0.50;0.00;;;;;11.60;57.89;100614.34;5060669;28;45729;-62
2022/04/06 05:25:08;;;;;;;;;1.00;0.00;;;;;11.61;58.06;100609.00;5060779;28;45379;-62
2022/04/06 05:27:48;;;;;;;;;0.00;0.00;;;;;11.63;57.75;100607.09;5060738;28;45324;-62
2022/04/06 05:30:15;;;;;;;;;1.00;1.00;;;;;11.66;58.29;100608.69;5060572;28;45327;-62
2022/04/06 05:32:41;;;;;;;;;1.00;0.00;;;;;11.67;58.29;100611.22;5060435;28;45262;-62
2022/04/06 05:35:09;;;;;;;;;1.25;1.00;;;;;11.68;58.36;100612.06;5060477;28;45443;-62
2022/04/06 05:37:37;;;;;;;;;0.00;0.00;;;;;11.68;58.18;100606.78;5061026;28;45504;-63
2022/04/06 05:40:04;;;;;;;;;0.75;0.75;;;;;11.68;58.45;100614.69;5057529;28;45345;-62
2022/04/06 05:42:29;;;;;;;;;1.50;1.00;;;;;11.68;58.53;100612.06;5050986;28;45463;-62
2022/04/06 05:44:55;;;;;;;;;2.00;1.00;;;;;11.68;58.42;100614.69;5060222;28;45431;-63
2022/04/06 05:47:21;;;;;;;;;1.00;1.00;;;;;11.67;58.29;100615.66;5051597;28;45484;-63
2022/04/06 05:49:46;;;;;;;;;2.00;2.00;;;;;11.64;58.48;100616.72;5047595;28;45557;-62
2022/04/06 05:52:11;;;;;;;;;1.25;0.00;;;;;11.63;58.56;100614.19;5044000;28;46126;-62
2022/04/06 05:54:37;;;;;;;;;0.75;0.75;;;;;11.61;58.54;100610.75;5046455;28;45445;-62
2022/04/06 05:57:03;;;;;;;;;3.25;1.75;;;;;11.59;58.61;100607.38;5051825;28;45389;-63
2022/04/06 05:59:29;;;;;;;;;2.25;1.50;;;;;11.57;59.03;100610.13;5049696;28;45518;-62
2022/04/06 06:01:54;;;;;;;;;3.25;1.50;;;;;11.57;58.96;100607.50;5050265;28;46408;-62
2022/04/06 06:04:20;;;;;;;;;3.25;1.00;;;;;11.58;59.03;100608.34;5046830;28;45444;-62
2022/04/06 06:06:45;;;;;;;;;7.25;1.75;;;;;11.60;59.28;100617.84;5052809;28;45218;-62
2022/04/06 06:09:11;;;;;;;;;2.75;1.00;;;;;11.57;59.30;100612.78;5038677;28;45248;-62
2022/04/06 06:11:36;;;;;;;;;5.00;1.25;;;;;11.57;59.22;100609.28;5055778;28;46602;-61
2022/04/06 06:14:02;;;;;;;;;3.00;1.50;;;;;11.59;59.48;100602.13;5049262;28;45380;-65
2022/04/06 06:16:28;;;;;;;;;3.00;2.00;;;;;11.61;59.19;100610.75;5054408;28;45344;-62
2022/04/06 06:18:55;;;;;;;;;1.75;1.75;;;;;11.59;59.76;100605.59;5056734;28;45470;-62
2022/04/06 06:21:21;;;;;;;;;1.50;1.50;;;;;11.59;59.68;100602.97;5043399;28;46780;-62
2022/04/06 06:23:46;;;;;;;;;4.25;2.75;;;;;11.60;59.77;100604.66;5045024;28;46085;-62
2022/04/06 06:26:12;;;;;;;;;5.00;2.00;;;;;11.61;59.76;100605.50;5052184;28;45327;-62
2022/04/06 06:28:39;;;;;;;;;3.00;2.00;;;;;11.60;59.89;100596.72;5043971;28;45549;-62
2022/04/06 06:31:05;;;;;;;;;2.75;1.00;;;;;11.59;59.85;100607.38;5056696;28;46321;-61
2022/04/06 06:33:30;;;;;;;;;4.50;2.25;;;;;11.56;59.46;100597.91;5043050;28;45245;-62
2022/04/06 06:35:56;;;;;;;;;4.75;3.75;;;;;11.54;59.46;100594.53;5056440;28;45289;-62
2022/04/06 06:38:21;;;;;;;;;2.00;2.00;;;;;11.54;59.88;100599.78;5047505;28;45229;-62
2022/04/06 06:40:48;;;;;;;;;1.00;1.00;;;;;11.56;60.12;100600.53;5045242;28;45734;-64
2022/04/06 06:43:14;;;;;;;;;6.75;3.00;;;;;11.58;59.58;100595.16;5042748;28;45378;-60
2022/04/06 06:45:40;;;;;;;;;2.50;2.50;;;;;11.58;59.91;100597.78;5056169;28;45253;-62
2022/04/06 06:48:06;;;;;;;;;5.50;2.00;;;;;11.61;59.84;100597.56;5053577;28;45293;-61
2022/04/06 06:50:31;;;;;;;;;1.75;1.75;;;;;11.64;59.84;100590.31;5049040;28;46179;-61
2022/04/06 06:52:57;;;;;;;;;3.50;2.75;;;;;11.68;60.02;100588.31;5054192;28;45446;-62
2022/04/06 06:55:23;;;;;;;;;3.25;2.25;;;;;11.73;59.76;100602.91;5051432;28;45293;-60
2022/04/06 06:57:49;;;;;;;;;2.50;1.00;;;;;11.77;59.71;100587.72;5056597;28;45582;-61
2022/04/06 07:00:15;;;;;;;;;8.50;3.00;;;;;11.84;59.92;100586.38;5047833;28;46167;-61
2022/04/06 07:02:41;;;;;;;;;4.25;2.00;;;;;11.90;59.62;100591.25;5052905;28;45209;-61
2022/04/06 07:05:07;;;;;;;;;3.25;1.00;;;;;11.92;59.32;100584.06;5051583;28;45392;-61
2022/04/06 07:07:33;;;;;;;;;3.25;2.50;;;;;11.97;59.27;100589.03;5049445;28;45234;-61
2022/04/06 07:10:00;;;;;;;;;3.00;2.00;;;;;11.99;59.35;100585.34;5053270;28;45305;-61
2022/04/06 07:12:25;;;;;;;;;3.75;2.00;;;;;12.03;59.09;100591.28;5055811;28;45377;-61
2022/04/06 07:14:51;;;;;;;;;5.75;2.00;;;;;12.04;58.92;100586.84;5052485;28;45412;-61
2022/04/06 07:17:17;;;;;;;;;9.25;3.00;;;;;12.07;59.05;100583.97;5049161;28;45592;-61
2022/04/06 07:19:45;;;;;;;;;6.50;1.25;;;;;12.11;58.86;100574.91;5052354;28;45380;-61
2022/04/06 07:22:10;;;;;;;;;1.75;1.75;;;;;12.18;58.76;100573.56;5033116;28;45349;-61
2022/04/06 07:24:36;;;;;;;;;2.00;1.00;;;;;12.26;58.93;100577.34;5062067;28;45193;-61
2022/04/06 07:27:02;;;;;;;;;4.00;2.50;;;;;12.32;58.76;100583.16;5061792;28;45285;-60
2022/04/06 07:29:27;;;;;;;;;4.50;2.00;;;;;12.37;58.49;100579.25;5068748;28;46222;-61
2022/04/06 07:31:53;;;;;;;;;1.00;1.00;;;;;12.35;58.12;100581.16;5056883;28;45416;-61
2022/04/06 07:34:18;;;;;;;;;2.25;1.00;;;;;12.34;58.21;100576.81;5060758;28;45174;-61
2022/04/06 07:36:44;;;;;;;;;3.00;1.00;;;;;12.39;58.32;100572.06;5062483;28;45225;-61
2022/04/06 07:39:09;;;;;;;;;4.75;2.00;;;;;12.45;58.38;100578.72;5064314;28;45474;-61
2022/04/06 07:41:35;;;;;;;;;4.25;1.50;;;;;12.47;58.13;100579.44;5051800;28;45257;-61
2022/04/06 07:44:00;;;;;;;;;2.00;1.50;;;;;12.49;58.11;100578.41;5054198;28;45608;-61
2022/04/06 07:46:26;;;;;;;;;2.75;1.75;;;;;12.57;58.11;100580.53;5067479;28;45319;-61
2022/04/06 07:48:51;;;;;;;;;6.00;3.00;;;;;12.63;57.83;100574.78;5068906;28;45335;-61
2022/04/06 07:51:17;;;;;;;;;3.25;2.00;;;;;12.70;57.85;100569.91;5061713;28;45319;-61
2022/04/06 07:53:43;;;;;;;;;3.75;2.00;;;;;12.75;57.47;100567.78;5058360;28;45515;-60
2022/04/06 07:56:09;;;;;;;;;2.75;1.00;;;;;12.80;57.41;100563.03;5055784;28;45437;-61
2022/04/06 07:58:35;;;;;;;;;7.25;3.00;;;;;12.88;57.36;100558.03;5061150;28;45323;-61
2022/04/06 08:01:02;;;;;;;;;1.25;1.25;;;;;12.96;57.11;100547.75;5061937;28;45435;-61
2022/04/06 08:03:29;;;;;;;;;3.50;1.50;;;;;13.01;56.83;100552.69;5061879;28;45522;-61
2022/04/06 08:05:54;;;;;;;;;1.00;0.75;;;;;13.05;56.58;100547.09;5062071;28;45371;-60
2022/04/06 08:08:20;;;;;;;;;2.00;2.00;;;;;13.09;56.77;100551.19;5061618;28;46055;-60
2022/04/06 08:10:45;;;;;;;;;3.75;3.25;;;;;13.09;56.35;100548.53;5061828;28;45250;-61
2022/04/06 08:13:11;;;;;;;;;3.00;2.75;;;;;13.09;56.30;100543.25;5061960;28;45453;-61
2022/04/06 08:15:37;;;;;;;;;4.50;2.00;;;;;13.13;56.39;100538.59;5062025;28;45571;-61
2022/04/06 08:18:02;;;;;;;;;4.00;1.50;;;;;13.16;56.10;100530.44;5061323;28;45368;-61
2022/04/06 08:20:28;;;;;;;;;6.00;3.50;;;;;13.22;56.21;100534.47;5065804;28;45304;-61
2022/04/06 08:22:55;;;;;;;;;4.00;1.00;;;;;13.26;55.87;100536.75;5066928;28;45254;-61
2022/04/06 08:25:20;;;;;;;;;5.00;4.00;;;;;13.34;56.06;100541.47;5060777;28;45248;-61
2022/04/06 08:27:46;;;;;;;;;4.00;2.00;;;;;13.40;55.58;100533.94;5061369;28;46245;-61
2022/04/06 08:30:13;;;;;;;;;5.00;3.00;;;;;13.42;55.50;100533.81;5061449;28;45264;-61
2022/04/06 08:32:38;;;;;;;;;4.75;3.00;;;;;13.47;55.73;100534.34;5060557;28;45361;-61
2022/04/06 08:35:05;;;;;;;;;1.00;1.00;;;;;13.54;55.67;100532.06;5060821;28;45191;-61
2022/04/06 08:37:32;;;;;;;;;9.00;2.25;;;;;13.57;55.60;100530.03;5061633;28;45419;-61
2022/04/06 08:39:59;;;;;;;;;4.00;2.75;;;;;13.65;55.29;100519.72;5061061;28;45393;-60
2022/04/06 08:42:25;;;;;;;;;4.25;3.00;;;;;13.67;54.95;100522.25;5049819;28;45380;-60
2022/04/06 08:44:52;;;;;;;;;1.00;1.00;;;;;13.67;54.96;100535.50;5061468;28;45535;-61
2022/04/06 08:47:18;;;;;;;;;4.00;2.00;;;;;13.70;55.13;100522.03;5061189;28;45378;-61
2022/04/06 08:49:45;;;;;;;;;4.00;2.00;;;;;13.74;54.83;100525.25;5060446;28;45479;-62
2022/04/06 08:52:12;;;;;;;;;2.25;2.00;;;;;13.78;54.86;100524.94;5061717;28;45282;-62
2022/04/06 08:54:39;;;;;;;;;3.00;1.75;;;;;13.81;54.57;100535.28;5051227;28;45523;-62
2022/04/06 08:57:05;;;;;;;;;1.50;1.50;;;;;13.74;54.39;100518.16;5060513;28;45227;-60
2022/04/06 08:59:32;;;;;;;;;2.00;1.50;;;;;13.71;54.82;100526.34;5060914;28;45300;-62
2022/04/06 09:01:58;;;;;;;;;2.25;2.00;;;;;13.74;54.53;100525.25;5061311;28;45311;-62
2022/04/06 09:04:24;;;;;;;;;3.00;1.25;;;;;13.78;54.66;100524.09;5060624;28;45225;-70
2022/04/06 09:06:50;;;;;;;;;6.00;3.00;;;;;13.85;54.54;100517.38;5061090;28;45348;-64
2022/04/06 09:09:26;;;;;;;;;3.50;3.00;;;;;13.91;54.39;100523.03;5060968;28;45686;-63
2022/04/06 09:11:52;;;;;;;;;3.25;1.25;;;;;13.96;54.63;100514.72;5061085;28;45328;-67
2022/04/06 09:14:30;;;;;;;;;1.50;1.50;;;;;14.00;54.44;100508.25;5066345;28;45328;-65
2022/04/06 09:17:06;;;;;;;;;1.25;1.25;;;;;14.06;54.17;100520.16;5060354;28;46339;-66
2022/04/06 09:19:36;;;;;;;;;3.00;1.50;;;;;14.08;54.14;100513.81;5060533;28;45256;-67
2022/04/06 09:22:06;;;;;;;;;2.50;2.50;;;;;14.17;53.95;100514.88;5060989;28;45323;-67
2022/04/06 09:24:32;;;;;;;;;2.50;2.50;;;;;14.24;53.58;100516.09;5060293;28;45413;-66
2022/04/06 09:26:59;;;;;;;;;4.50;2.50;;;;;14.30;53.61;100509.44;5060159;28;45248;-66
2022/04/06 09:29:25;;;;;;;;;1.00;1.00;;;;;14.32;53.37;100518.16;5060854;28;45274;-67
2022/04/06 09:31:51;;;;;;;;;3.00;1.50;;;;;14.32;52.89;100518.16;5060360;28;45450;-68
2022/04/06 09:34:21;;;;;;;;;2.00;2.00;;;;;14.32;52.97;100512.84;5060551;28;45559;-63
2022/04/06 09:36:48;;;;;;;;;2.00;2.00;;;;;14.33;53.19;100507.44;5060436;28;46238;-66
2022/04/06 09:39:13;;;;;;;;;14.00;4.00;;;;;14.39;52.88;100509.59;5060604;28;45261;-67
2022/04/06 09:42:02;;;;;;;;;1.00;1.00;;;;;14.41;52.68;100512.13;5048615;28;45225;-68
2022/04/06 09:50:19;;;;;;;;;2.75;2.25;;;;;14.48;52.51;100514.19;5041818;28;45341;-67
2022/04/06 09:52:46;;;;;;;;;3.25;2.25;;;;;14.44;52.47;100509.22;5060781;28;45357;-67
2022/04/06 09:55:14;;;;;;;;;3.00;2.00;;;;;14.47;52.41;100509.88;5050200;28;45259;-68
2022/04/06 09:57:40;;;;;;;;;3.25;3.00;;;;;14.45;52.38;100500.28;5060355;28;46037;-68
2022/04/06 10:00:07;;;;;;;;;2.25;2.00;;;;;14.42;52.21;100506.69;5060288;28;45333;-66
2022/04/06 10:02:34;;;;;;;;;2.00;2.00;;;;;14.43;52.54;100507.53;5060251;28;45266;-62
2022/04/06 10:05:02;;;;;;;;;2.00;2.00;;;;;14.46;52.15;100516.13;5060228;28;45289;-72
2022/04/06 10:07:28;;;;;;;;;4.00;2.00;;;;;14.44;52.08;100520.66;5059984;28;45497;-69
2022/04/06 10:09:55;;;;;;;;;5.75;1.50;;;;;14.35;52.07;100517.91;5060361;28;45410;-65
2022/04/06 10:12:21;;;;;;;;;3.00;2.00;;;;;14.33;52.28;100523.31;5060220;28;45285;-67
2022/04/06 10:14:47;;;;;;;;;5.00;2.00;;;;;14.29;51.96;100519.22;5066469;28;45456;-67
2022/04/06 10:17:14;;;;;;;;;4.00;2.00;;;;;14.19;52.23;100511.16;5059861;28;46324;-74
2022/04/06 10:19:46;;;;;;;;;3.00;1.00;;;;;14.24;52.51;100494.91;5060012;28;45166;-73
2022/04/06 10:22:30;;;;;;;;;2.00;1.75;;;;;14.30;52.53;100490.91;5060158;28;45492;-71
2022/04/06 10:25:08;;;;;;;;;2.25;1.75;;;;;14.32;52.56;100486.34;5059790;28;45464;-74
2022/04/06 10:27:42;;;;;;;;;3.50;2.00;;;;;14.33;52.44;100480.94;5059211;28;45387;-66
2022/04/06 10:30:16;;;;;;;;;2.00;2.00;;;;;14.37;52.48;100489.47;5060180;28;45470;-69
2022/04/06 10:32:48;;;;;;;;;2.00;2.00;;;;;14.40;52.59;100483.94;5052225;28;45419;-69
2022/04/06 10:35:30;;;;;;;;;5.00;2.00;;;;;14.44;52.79;100478.25;5059477;28;45990;-66
2022/04/06 10:37:56;;;;;;;;;4.00;3.00;;;;;14.49;52.30;100478.78;5059804;28;45553;-71
2022/04/06 10:40:22;;;;;;;;;4.00;2.00;;;;;14.55;52.49;100468.66;5056851;28;45232;-65
2022/04/06 10:42:49;;;;;;;;;3.75;2.25;;;;;14.58;52.66;100463.94;5052977;28;45317;-72
2022/04/06 10:45:29;;;;;;;;;2.00;2.00;;;;;14.60;52.17;100466.47;5059740;28;45606;-75
2022/04/06 10:48:16;;;;;;;;;3.75;3.75;;;;;14.55;52.39;100468.66;5059557;28;45509;-76
2022/04/06 10:50:44;;;;;;;;;3.75;2.25;;;;;14.48;52.05;100458.53;5048198;28;45203;-78
2022/04/06 10:53:19;;;;;;;;;5.00;4.00;;;;;14.42;52.32;100455.50;5059788;28;45327;-77
2022/04/06 10:56:16;;;;;;;;;11.25;6.00;;;;;14.35;52.39;100441.91;5051469;28;45162;-70
2022/04/06 10:58:54;;;;;;;;;6.00;4.50;;;;;14.31;52.54;100437.81;5050805;28;45449;-68
2022/04/06 11:01:26;;;;;;;;;5.00;2.00;;;;;14.23;52.95;100440.22;5061646;28;45381;-68
2022/04/06 11:03:59;;;;;;;;;4.75;2.25;;;;;14.20;53.12;100432.50;5062175;28;45449;-69
2022/04/06 11:07:01;;;;;;;;;3.25;3.00;;;;;14.18;52.93;100437.94;5061196;28;45571;-67
2022/04/06 11:12:22;;;;;;;;;4.50;3.00;;;;;14.29;53.22;100425.63;5061074;28;45379;-62
2022/04/06 11:15:08;;;;;;;;;7.25;4.00;;;;;14.42;53.17;100418.41;5068702;28;45245;-61
2022/04/06 11:17:37;;;;;;;;;3.00;3.00;;;;;14.51;52.90;100417.69;5056343;28;45137;-63
2022/04/06 11:20:09;;;;;;;;;3.25;2.25;;;;;14.51;53.12;100407.94;5039802;28;45663;-63
2022/04/06 11:22:38;;;;;;;;;6.00;3.50;;;;;14.48;53.51;100410.00;5061049;28;45523;-59
2022/04/06 11:25:07;;;;;;;;;3.75;3.75;;;;;14.51;53.28;100399.97;5061097;28;45556;-61
2022/04/06 11:27:34;;;;;;;;;6.75;3.25;;;;;14.60;53.41;100394.88;5063991;28;45295;-67
2022/04/06 11:30:05;;;;;;;;;5.25;4.00;;;;;14.70;53.28;100396.69;5047501;28;45372;-61
2022/04/06 11:32:31;;;;;;;;;3.50;3.50;;;;;14.77;53.05;100379.31;5060637;28;45418;-62
2022/04/06 11:35:02;;;;;;;;;6.50;3.75;;;;;14.82;53.21;100380.72;5059109;28;45301;-63
2022/04/06 11:37:28;;;;;;;;;9.25;6.00;;;;;14.76;52.87;100376.75;5049496;28;45340;-63